sensor_id;sensor_type;location;lat;lon;timestamp;temperature;humidity
56240;DHT22;42154;51.992;5.896;2023-04-06T00:01:40;4.60;99.90
56240;DHT22;42154;51.992;5.896;2023-04-06T00:04:06;4.50;99.90
56240;DHT22;42154;51.992;5.896;2023-04-06T00:06:33;4.50;99.90
56240;DHT22;42154;51.992;5.896;2023-04-06T00:09:00;4.50;99.90
56240;DHT22;42154;51.992;5.896;2023-04-06T00:11:26;4.40;99.90
56240;DHT22;42154;51.992;5.896;2023-04-06T00:13:52;4.40;99.90
56240;DHT22;42154;51.992;5.896;2023-04-06T00:16:18;4.40;99.90
56240;DHT22;42154;51.992;5.896;2023-04-06T00:18:44;4.40;99.90
56240;DHT22;42154;51.992;5.896;2023-04-06T00:21:13;4.40;99.90
56240;DHT22;42154;51.992;5.896;2023-04-06T00:23:41;4.40;99.90
56240;DHT22;42154;51.992;5.896;2023-04-06T00:26:08;4.40;99.90
56240;DHT22;42154;51.992;5.896;2023-04-06T00:28:34;4.30;99.90
56240;DHT22;42154;51.992;5.896;2023-04-06T00:30:59;4.30;99.90
56240;DHT22;42154;51.992;5.896;2023-04-06T00:33:25;4.30;99.90
56240;DHT22;42154;51.992;5.896;2023-04-06T00:35:51;4.30;99.90
56240;DHT22;42154;51.992;5.896;2023-04-06T00:38:17;4.20;99.90
56240;DHT22;42154;51.992;5.896;2023-04-06T00:40:43;4.20;99.90
56240;DHT22;42154;51.992;5.896;2023-04-06T00:43:13;4.20;99.90
56240;DHT22;42154;51.992;5.896;2023-04-06T00:45:39;4.10;99.90
56240;DHT22;42154;51.992;5.896;2023-04-06T00:48:06;4.10;99.90
56240;DHT22;42154;51.992;5.896;2023-04-06T00:50:32;4.20;99.90
56240;DHT22;42154;51.992;5.896;2023-04-06T00:52:59;4.00;99.90
56240;DHT22;42154;51.992;5.896;2023-04-06T00:55:27;4.00;99.90
56240;DHT22;42154;51.992;5.896;2023-04-06T00:57:53;4.00;99.90
56240;DHT22;42154;51.992;5.896;2023-04-06T01:00:20;4.00;99.90
56240;DHT22;42154;51.992;5.896;2023-04-06T01:02:49;4.00;99.90
56240;DHT22;42154;51.992;5.896;2023-04-06T01:05:19;3.90;99.90
56240;DHT22;42154;51.992;5.896;2023-04-06T01:07:52;3.90;99.90
56240;DHT22;42154;51.992;5.896;2023-04-06T01:10:26;3.90;99.90
56240;DHT22;42154;51.992;5.896;2023-04-06T01:12:58;3.90;99.90
56240;DHT22;42154;51.992;5.896;2023-04-06T01:15:47;3.90;99.90
56240;DHT22;42154;51.992;5.896;2023-04-06T01:18:25;3.80;99.90
56240;DHT22;42154;51.992;5.896;2023-04-06T01:20:58;3.80;99.90
56240;DHT22;42154;51.992;5.896;2023-04-06T01:23:26;3.80;99.90
56240;DHT22;42154;51.992;5.896;2023-04-06T01:25:52;3.80;99.90
56240;DHT22;42154;51.992;5.896;2023-04-06T01:28:19;3.80;99.90
56240;DHT22;42154;51.992;5.896;2023-04-06T01:31:02;3.70;99.90
56240;DHT22;42154;51.992;5.896;2023-04-06T01:33:41;3.70;99.90
56240;DHT22;42154;51.992;5.896;2023-04-06T01:36:10;3.60;99.90
56240;DHT22;42154;51.992;5.896;2023-04-06T01:38:36;3.60;99.90
56240;DHT22;42154;51.992;5.896;2023-04-06T01:41:02;3.70;99.90
56240;DHT22;42154;51.992;5.896;2023-04-06T01:43:33;3.60;99.90
56240;DHT22;42154;51.992;5.896;2023-04-06T01:46:04;3.60;99.90
56240;DHT22;42154;51.992;5.896;2023-04-06T01:48:34;3.50;99.90
56240;DHT22;42154;51.992;5.896;2023-04-06T01:51:08;3.50;99.90
56240;DHT22;42154;51.992;5.896;2023-04-06T01:53:41;3.50;99.90
56240;DHT22;42154;51.992;5.896;2023-04-06T01:56:07;3.50;99.90
56240;DHT22;42154;51.992;5.896;2023-04-06T01:58:38;3.50;99.90
56240;DHT22;42154;51.992;5.896;2023-04-06T02:01:03;3.50;99.90
56240;DHT22;42154;51.992;5.896;2023-04-06T02:03:37;3.40;99.90
56240;DHT22;42154;51.992;5.896;2023-04-06T02:06:08;3.40;99.90
56240;DHT22;42154;51.992;5.896;2023-04-06T02:08:38;3.50;99.90
56240;DHT22;42154;51.992;5.896;2023-04-06T02:11:04;3.40;99.90
56240;DHT22;42154;51.992;5.896;2023-04-06T02:13:36;3.40;99.90
56240;DHT22;42154;51.992;5.896;2023-04-06T02:16:02;3.40;99.90
56240;DHT22;42154;51.992;5.896;2023-04-06T02:18:30;3.40;99.90
56240;DHT22;42154;51.992;5.896;2023-04-06T02:20:56;3.40;99.90
56240;DHT22;42154;51.992;5.896;2023-04-06T02:23:22;3.40;99.90
56240;DHT22;42154;51.992;5.896;2023-04-06T02:25:49;3.30;99.90
56240;DHT22;42154;51.992;5.896;2023-04-06T02:28:14;3.30;99.90
56240;DHT22;42154;51.992;5.896;2023-04-06T02:30:40;3.30;99.90
56240;DHT22;42154;51.992;5.896;2023-04-06T02:33:06;3.30;99.90
56240;DHT22;42154;51.992;5.896;2023-04-06T02:35:40;3.30;99.90
56240;DHT22;42154;51.992;5.896;2023-04-06T02:38:06;3.30;99.90
56240;DHT22;42154;51.992;5.896;2023-04-06T02:40:32;3.30;99.90
56240;DHT22;42154;51.992;5.896;2023-04-06T02:43:06;3.30;99.90
56240;DHT22;42154;51.992;5.896;2023-04-06T02:45:32;3.30;99.90
56240;DHT22;42154;51.992;5.896;2023-04-06T02:48:00;3.30;99.90
56240;DHT22;42154;51.992;5.896;2023-04-06T02:50:26;3.30;99.90
56240;DHT22;42154;51.992;5.896;2023-04-06T02:52:58;3.30;99.90
56240;DHT22;42154;51.992;5.896;2023-04-06T02:55:24;3.30;99.90
56240;DHT22;42154;51.992;5.896;2023-04-06T02:57:49;3.30;99.90
56240;DHT22;42154;51.992;5.896;2023-04-06T03:00:17;3.40;99.90
56240;DHT22;42154;51.992;5.896;2023-04-06T03:02:43;3.40;99.90
56240;DHT22;42154;51.992;5.896;2023-04-06T03:05:13;3.40;99.90
56240;DHT22;42154;51.992;5.896;2023-04-06T03:07:42;3.40;99.90
56240;DHT22;42154;51.992;5.896;2023-04-06T03:10:13;3.40;99.90
56240;DHT22;42154;51.992;5.896;2023-04-06T03:12:39;3.40;99.90
56240;DHT22;42154;51.992;5.896;2023-04-06T03:15:12;3.50;99.90
56240;DHT22;42154;51.992;5.896;2023-04-06T03:17:43;3.50;99.90
56240;DHT22;42154;51.992;5.896;2023-04-06T03:20:16;3.50;99.90
56240;DHT22;42154;51.992;5.896;2023-04-06T03:22:42;3.60;99.90
56240;DHT22;42154;51.992;5.896;2023-04-06T03:25:12;3.70;99.90
56240;DHT22;42154;51.992;5.896;2023-04-06T03:27:39;3.70;99.90
56240;DHT22;42154;51.992;5.896;2023-04-06T03:30:07;3.80;99.90
56240;DHT22;42154;51.992;5.896;2023-04-06T03:32:34;3.80;99.90
56240;DHT22;42154;51.992;5.896;2023-04-06T03:35:01;3.80;99.90
56240;DHT22;42154;51.992;5.896;2023-04-06T03:37:27;3.80;99.90
56240;DHT22;42154;51.992;5.896;2023-04-06T03:39:58;3.80;99.90
56240;DHT22;42154;51.992;5.896;2023-04-06T03:42:24;3.80;99.90
56240;DHT22;42154;51.992;5.896;2023-04-06T03:44:58;3.80;99.90
56240;DHT22;42154;51.992;5.896;2023-04-06T03:47:24;3.80;99.90
56240;DHT22;42154;51.992;5.896;2023-04-06T03:49:54;3.80;99.90
56240;DHT22;42154;51.992;5.896;2023-04-06T03:52:21;3.80;99.90
56240;DHT22;42154;51.992;5.896;2023-04-06T03:54:50;3.80;99.90
56240;DHT22;42154;51.992;5.896;2023-04-06T03:57:15;3.90;99.90
56240;DHT22;42154;51.992;5.896;2023-04-06T03:59:41;3.90;99.90
56240;DHT22;42154;51.992;5.896;2023-04-06T04:02:07;3.90;99.90
56240;DHT22;42154;51.992;5.896;2023-04-06T04:04:33;3.90;99.90
56240;DHT22;42154;51.992;5.896;2023-04-06T04:06:58;3.90;99.90
56240;DHT22;42154;51.992;5.896;2023-04-06T04:09:24;4.00;99.90
56240;DHT22;42154;51.992;5.896;2023-04-06T04:11:50;4.00;99.90
56240;DHT22;42154;51.992;5.896;2023-04-06T04:14:16;4.00;99.90
56240;DHT22;42154;51.992;5.896;2023-04-06T04:16:42;4.00;99.90
56240;DHT22;42154;51.992;5.896;2023-04-06T04:19:08;4.00;99.90
56240;DHT22;42154;51.992;5.896;2023-04-06T04:21:33;4.00;99.90
56240;DHT22;42154;51.992;5.896;2023-04-06T04:24:06;4.10;99.90
56240;DHT22;42154;51.992;5.896;2023-04-06T04:26:34;4.10;99.90
56240;DHT22;42154;51.992;5.896;2023-04-06T04:28:59;4.10;99.90
56240;DHT22;42154;51.992;5.896;2023-04-06T04:31:25;4.10;99.90
56240;DHT22;42154;51.992;5.896;2023-04-06T04:33:56;4.10;99.90
56240;DHT22;42154;51.992;5.896;2023-04-06T04:36:28;4.10;99.90
56240;DHT22;42154;51.992;5.896;2023-04-06T04:38:56;4.20;99.90
56240;DHT22;42154;51.992;5.896;2023-04-06T04:41:22;4.20;99.90
56240;DHT22;42154;51.992;5.896;2023-04-06T04:43:49;4.20;99.90
56240;DHT22;42154;51.992;5.896;2023-04-06T04:46:20;4.20;99.90
56240;DHT22;42154;51.992;5.896;2023-04-06T04:48:46;4.20;99.90
56240;DHT22;42154;51.992;5.896;2023-04-06T04:51:12;4.20;99.90
56240;DHT22;42154;51.992;5.896;2023-04-06T04:54:01;4.30;99.90
56240;DHT22;42154;51.992;5.896;2023-04-06T04:56:30;4.30;99.90
56240;DHT22;42154;51.992;5.896;2023-04-06T04:59:04;4.30;99.90
56240;DHT22;42154;51.992;5.896;2023-04-06T05:01:34;4.30;99.90
56240;DHT22;42154;51.992;5.896;2023-04-06T05:04:00;4.30;99.90
56240;DHT22;42154;51.992;5.896;2023-04-06T05:06:27;4.30;99.90
56240;DHT22;42154;51.992;5.896;2023-04-06T05:08:53;4.30;99.90
56240;DHT22;42154;51.992;5.896;2023-04-06T05:11:20;4.30;99.90
56240;DHT22;42154;51.992;5.896;2023-04-06T05:13:53;4.30;99.90
56240;DHT22;42154;51.992;5.896;2023-04-06T05:16:22;4.40;99.90
56240;DHT22;42154;51.992;5.896;2023-04-06T05:18:49;4.40;99.90
56240;DHT22;42154;51.992;5.896;2023-04-06T05:21:15;4.40;99.90
56240;DHT22;42154;51.992;5.896;2023-04-06T05:23:53;4.40;99.90
56240;DHT22;42154;51.992;5.896;2023-04-06T05:26:20;4.40;99.90
56240;DHT22;42154;51.992;5.896;2023-04-06T05:28:48;4.50;99.90
56240;DHT22;42154;51.992;5.896;2023-04-06T05:31:16;4.50;99.90
56240;DHT22;42154;51.992;5.896;2023-04-06T05:33:48;4.50;99.90
56240;DHT22;42154;51.992;5.896;2023-04-06T05:36:15;4.60;99.90
56240;DHT22;42154;51.992;5.896;2023-04-06T05:38:44;4.60;99.90
56240;DHT22;42154;51.992;5.896;2023-04-06T05:41:25;4.70;99.90
56240;DHT22;42154;51.992;5.896;2023-04-06T05:43:51;4.70;99.90
56240;DHT22;42154;51.992;5.896;2023-04-06T05:46:18;4.80;99.90
56240;DHT22;42154;51.992;5.896;2023-04-06T05:48:44;4.80;99.90
56240;DHT22;42154;51.992;5.896;2023-04-06T05:51:12;4.90;99.90
56240;DHT22;42154;51.992;5.896;2023-04-06T05:53:44;5.00;99.90
56240;DHT22;42154;51.992;5.896;2023-04-06T05:56:10;5.10;99.90
56240;DHT22;42154;51.992;5.896;2023-04-06T05:58:36;5.20;99.90
56240;DHT22;42154;51.992;5.896;2023-04-06T06:01:01;5.30;99.90
56240;DHT22;42154;51.992;5.896;2023-04-06T06:03:36;5.30;99.90
56240;DHT22;42154;51.992;5.896;2023-04-06T06:06:03;5.40;99.90
56240;DHT22;42154;51.992;5.896;2023-04-06T06:08:37;5.50;99.90
56240;DHT22;42154;51.992;5.896;2023-04-06T06:11:10;5.60;99.90
56240;DHT22;42154;51.992;5.896;2023-04-06T06:13:36;5.60;99.90
56240;DHT22;42154;51.992;5.896;2023-04-06T06:16:01;5.70;99.90
56240;DHT22;42154;51.992;5.896;2023-04-06T06:18:31;5.80;99.90
56240;DHT22;42154;51.992;5.896;2023-04-06T06:20:58;5.80;99.90
56240;DHT22;42154;51.992;5.896;2023-04-06T06:23:25;5.90;99.90
56240;DHT22;42154;51.992;5.896;2023-04-06T06:25:51;6.00;99.90
56240;DHT22;42154;51.992;5.896;2023-04-06T06:28:20;6.00;99.90
56240;DHT22;42154;51.992;5.896;2023-04-06T06:30:45;6.10;99.90
56240;DHT22;42154;51.992;5.896;2023-04-06T06:33:17;6.10;99.90
56240;DHT22;42154;51.992;5.896;2023-04-06T06:35:43;6.20;99.90
56240;DHT22;42154;51.992;5.896;2023-04-06T06:38:08;6.20;99.90
56240;DHT22;42154;51.992;5.896;2023-04-06T06:40:34;6.30;99.90
56240;DHT22;42154;51.992;5.896;2023-04-06T06:43:00;6.40;99.90
56240;DHT22;42154;51.992;5.896;2023-04-06T06:45:36;6.50;99.90
56240;DHT22;42154;51.992;5.896;2023-04-06T06:48:02;6.70;99.90
56240;DHT22;42154;51.992;5.896;2023-04-06T06:50:28;6.80;99.90
56240;DHT22;42154;51.992;5.896;2023-04-06T06:52:53;6.90;99.90
56240;DHT22;42154;51.992;5.896;2023-04-06T06:55:20;7.00;99.90
56240;DHT22;42154;51.992;5.896;2023-04-06T06:57:46;7.10;99.90
56240;DHT22;42154;51.992;5.896;2023-04-06T07:00:13;7.30;99.90
56240;DHT22;42154;51.992;5.896;2023-04-06T07:02:41;7.40;99.90
56240;DHT22;42154;51.992;5.896;2023-04-06T07:05:07;7.40;99.90
56240;DHT22;42154;51.992;5.896;2023-04-06T07:07:33;7.50;99.90
56240;DHT22;42154;51.992;5.896;2023-04-06T07:10:00;7.50;99.90
56240;DHT22;42154;51.992;5.896;2023-04-06T07:12:26;7.60;99.90
56240;DHT22;42154;51.992;5.896;2023-04-06T07:14:52;7.70;99.90
56240;DHT22;42154;51.992;5.896;2023-04-06T07:17:18;7.70;99.90
56240;DHT22;42154;51.992;5.896;2023-04-06T07:19:44;7.80;99.90
56240;DHT22;42154;51.992;5.896;2023-04-06T07:22:11;7.80;99.90
56240;DHT22;42154;51.992;5.896;2023-04-06T07:24:37;7.90;99.90
56240;DHT22;42154;51.992;5.896;2023-04-06T07:27:03;7.90;99.90
56240;DHT22;42154;51.992;5.896;2023-04-06T07:29:29;8.00;99.90
56240;DHT22;42154;51.992;5.896;2023-04-06T07:31:55;8.10;99.90
56240;DHT22;42154;51.992;5.896;2023-04-06T07:34:22;8.20;99.90
56240;DHT22;42154;51.992;5.896;2023-04-06T07:36:48;8.20;99.90
56240;DHT22;42154;51.992;5.896;2023-04-06T07:39:14;8.30;99.90
56240;DHT22;42154;51.992;5.896;2023-04-06T07:41:41;8.40;99.90
56240;DHT22;42154;51.992;5.896;2023-04-06T07:44:07;8.50;99.90
56240;DHT22;42154;51.992;5.896;2023-04-06T07:46:33;8.60;99.90
56240;DHT22;42154;51.992;5.896;2023-04-06T07:49:00;8.70;99.90
56240;DHT22;42154;51.992;5.896;2023-04-06T07:51:29;8.80;99.90
56240;DHT22;42154;51.992;5.896;2023-04-06T07:53:55;8.80;99.80
56240;DHT22;42154;51.992;5.896;2023-04-06T07:56:21;8.80;99.60
56240;DHT22;42154;51.992;5.896;2023-04-06T07:58:47;8.90;99.60
56240;DHT22;42154;51.992;5.896;2023-04-06T08:01:13;8.90;99.60
56240;DHT22;42154;51.992;5.896;2023-04-06T08:03:39;8.90;99.70
56240;DHT22;42154;51.992;5.896;2023-04-06T08:06:05;8.90;99.90
56240;DHT22;42154;51.992;5.896;2023-04-06T08:08:31;8.90;99.60
56240;DHT22;42154;51.992;5.896;2023-04-06T08:10:56;8.90;99.50
56240;DHT22;42154;51.992;5.896;2023-04-06T08:13:22;8.90;99.50
56240;DHT22;42154;51.992;5.896;2023-04-06T08:15:48;8.90;99.50
56240;DHT22;42154;51.992;5.896;2023-04-06T08:18:14;8.90;99.50
56240;DHT22;42154;51.992;5.896;2023-04-06T08:20:40;9.00;99.60
56240;DHT22;42154;51.992;5.896;2023-04-06T08:23:05;9.00;99.50
56240;DHT22;42154;51.992;5.896;2023-04-06T08:25:34;9.10;99.50
56240;DHT22;42154;51.992;5.896;2023-04-06T08:28:01;9.10;99.30
56240;DHT22;42154;51.992;5.896;2023-04-06T08:30:26;9.10;99.30
56240;DHT22;42154;51.992;5.896;2023-04-06T08:32:52;9.20;99.40
56240;DHT22;42154;51.992;5.896;2023-04-06T08:35:18;9.30;99.20
56240;DHT22;42154;51.992;5.896;2023-04-06T08:37:44;9.30;99.10
56240;DHT22;42154;51.992;5.896;2023-04-06T08:40:10;9.40;99.00
56240;DHT22;42154;51.992;5.896;2023-04-06T08:42:40;9.50;98.90
56240;DHT22;42154;51.992;5.896;2023-04-06T08:45:09;9.60;98.90
56240;DHT22;42154;51.992;5.896;2023-04-06T08:47:39;9.60;98.80
56240;DHT22;42154;51.992;5.896;2023-04-06T08:50:06;9.70;98.70
56240;DHT22;42154;51.992;5.896;2023-04-06T08:52:33;9.80;98.30
56240;DHT22;42154;51.992;5.896;2023-04-06T08:55:01;9.90;98.40
56240;DHT22;42154;51.992;5.896;2023-04-06T08:57:27;10.00;98.20
56240;DHT22;42154;51.992;5.896;2023-04-06T08:59:54;10.10;97.80
56240;DHT22;42154;51.992;5.896;2023-04-06T09:02:21;10.20;97.70
56240;DHT22;42154;51.992;5.896;2023-04-06T09:04:48;10.30;97.70
56240;DHT22;42154;51.992;5.896;2023-04-06T09:07:15;10.40;97.60
56240;DHT22;42154;51.992;5.896;2023-04-06T09:09:41;10.50;97.40
56240;DHT22;42154;51.992;5.896;2023-04-06T09:12:24;10.60;97.20
56240;DHT22;42154;51.992;5.896;2023-04-06T09:14:50;10.70;97.00
56240;DHT22;42154;51.992;5.896;2023-04-06T09:17:29;10.80;96.90
56240;DHT22;42154;51.992;5.896;2023-04-06T09:19:56;10.90;96.70
56240;DHT22;42154;51.992;5.896;2023-04-06T09:22:22;10.90;96.30
56240;DHT22;42154;51.992;5.896;2023-04-06T09:24:52;11.00;96.40
56240;DHT22;42154;51.992;5.896;2023-04-06T09:27:34;11.10;96.20
56240;DHT22;42154;51.992;5.896;2023-04-06T09:30:08;11.10;96.30
56240;DHT22;42154;51.992;5.896;2023-04-06T09:32:53;11.20;96.10
56240;DHT22;42154;51.992;5.896;2023-04-06T09:35:20;11.20;95.90
56240;DHT22;42154;51.992;5.896;2023-04-06T09:37:50;11.20;95.80
56240;DHT22;42154;51.992;5.896;2023-04-06T09:40:16;11.30;95.60
56240;DHT22;42154;51.992;5.896;2023-04-06T09:42:47;11.30;95.90
56240;DHT22;42154;51.992;5.896;2023-04-06T09:45:14;11.40;96.00
56240;DHT22;42154;51.992;5.896;2023-04-06T09:47:45;11.50;96.00
56240;DHT22;42154;51.992;5.896;2023-04-06T09:50:13;11.60;95.90
56240;DHT22;42154;51.992;5.896;2023-04-06T09:52:43;11.70;95.70
56240;DHT22;42154;51.992;5.896;2023-04-06T09:55:09;11.80;95.40
56240;DHT22;42154;51.992;5.896;2023-04-06T09:57:45;11.90;95.50
56240;DHT22;42154;51.992;5.896;2023-04-06T10:00:17;12.00;95.50
56240;DHT22;42154;51.992;5.896;2023-04-06T10:03:14;12.10;95.10
56240;DHT22;42154;51.992;5.896;2023-04-06T10:05:48;12.20;95.10
56240;DHT22;42154;51.992;5.896;2023-04-06T10:08:15;12.30;94.70
56240;DHT22;42154;51.992;5.896;2023-04-06T10:10:41;12.40;94.30
56240;DHT22;42154;51.992;5.896;2023-04-06T10:13:10;12.40;94.00
56240;DHT22;42154;51.992;5.896;2023-04-06T10:15:38;12.40;93.90
56240;DHT22;42154;51.992;5.896;2023-04-06T10:18:05;12.40;93.90
56240;DHT22;42154;51.992;5.896;2023-04-06T10:21:27;12.50;94.00
56240;DHT22;42154;51.992;5.896;2023-04-06T10:23:57;12.60;93.70
56240;DHT22;42154;51.992;5.896;2023-04-06T10:26:23;12.60;93.20
56240;DHT22;42154;51.992;5.896;2023-04-06T10:28:50;12.50;93.20
56240;DHT22;42154;51.992;5.896;2023-04-06T10:31:26;12.50;93.30
56240;DHT22;42154;51.992;5.896;2023-04-06T10:33:57;12.50;93.40
56240;DHT22;42154;51.992;5.896;2023-04-06T10:36:25;12.50;93.50
56240;DHT22;42154;51.992;5.896;2023-04-06T10:38:59;12.40;93.30
56240;DHT22;42154;51.992;5.896;2023-04-06T10:41:37;12.50;93.40
56240;DHT22;42154;51.992;5.896;2023-04-06T10:44:06;12.50;93.60
56240;DHT22;42154;51.992;5.896;2023-04-06T10:46:33;12.50;93.60
56240;DHT22;42154;51.992;5.896;2023-04-06T10:49:10;12.60;93.80
56240;DHT22;42154;51.992;5.896;2023-04-06T10:51:38;12.70;93.60
56240;DHT22;42154;51.992;5.896;2023-04-06T10:54:04;12.70;93.60
56240;DHT22;42154;51.992;5.896;2023-04-06T10:56:31;12.80;93.50
56240;DHT22;42154;51.992;5.896;2023-04-06T10:58:59;12.80;93.20
56240;DHT22;42154;51.992;5.896;2023-04-06T11:01:25;12.90;93.40
56240;DHT22;42154;51.992;5.896;2023-04-06T11:03:55;13.10;93.40
56240;DHT22;42154;51.992;5.896;2023-04-06T11:06:28;13.20;93.40
56240;DHT22;42154;51.992;5.896;2023-04-06T11:08:55;13.20;93.00
56240;DHT22;42154;51.992;5.896;2023-04-06T11:11:22;13.20;93.40
56240;DHT22;42154;51.992;5.896;2023-04-06T11:13:59;13.20;93.40
56240;DHT22;42154;51.992;5.896;2023-04-06T11:16:25;13.30;93.50
56240;DHT22;42154;51.992;5.896;2023-04-06T11:19:04;13.20;93.40
56240;DHT22;42154;51.992;5.896;2023-04-06T11:21:36;13.30;93.50
56240;DHT22;42154;51.992;5.896;2023-04-06T11:24:12;13.20;93.60
56240;DHT22;42154;51.992;5.896;2023-04-06T11:26:58;13.30;93.80
56240;DHT22;42154;51.992;5.896;2023-04-06T11:29:29;13.30;93.80
56240;DHT22;42154;51.992;5.896;2023-04-06T11:32:00;13.40;94.10
56240;DHT22;42154;51.992;5.896;2023-04-06T11:34:29;13.40;94.20
56240;DHT22;42154;51.992;5.896;2023-04-06T11:37:00;13.40;94.20
56240;DHT22;42154;51.992;5.896;2023-04-06T11:39:28;13.40;94.10
56240;DHT22;42154;51.992;5.896;2023-04-06T11:41:58;13.40;94.30
56240;DHT22;42154;51.992;5.896;2023-04-06T11:44:36;13.40;94.60
56240;DHT22;42154;51.992;5.896;2023-04-06T11:47:03;13.40;95.00
56240;DHT22;42154;51.992;5.896;2023-04-06T11:49:30;13.30;95.10
56240;DHT22;42154;51.992;5.896;2023-04-06T11:51:57;13.00;95.80
56240;DHT22;42154;51.992;5.896;2023-04-06T11:54:37;12.90;96.50
56240;DHT22;42154;51.992;5.896;2023-04-06T11:57:08;12.80;96.80
56240;DHT22;42154;51.992;5.896;2023-04-06T11:59:34;12.70;97.60
56240;DHT22;42154;51.992;5.896;2023-04-06T12:02:01;12.60;98.30
56240;DHT22;42154;51.992;5.896;2023-04-06T12:04:27;12.50;99.20
56240;DHT22;42154;51.992;5.896;2023-04-06T12:06:53;12.50;99.90
56240;DHT22;42154;51.992;5.896;2023-04-06T12:09:19;12.40;99.90
56240;DHT22;42154;51.992;5.896;2023-04-06T12:11:46;12.40;99.90
56240;DHT22;42154;51.992;5.896;2023-04-06T12:14:12;12.40;99.90
56240;DHT22;42154;51.992;5.896;2023-04-06T12:16:39;12.40;99.90
56240;DHT22;42154;51.992;5.896;2023-04-06T12:19:06;12.40;99.90
56240;DHT22;42154;51.992;5.896;2023-04-06T12:21:32;12.30;99.90
56240;DHT22;42154;51.992;5.896;2023-04-06T12:23:58;12.20;99.90
56240;DHT22;42154;51.992;5.896;2023-04-06T12:26:25;12.20;99.90
56240;DHT22;42154;51.992;5.896;2023-04-06T12:28:52;12.10;99.90
56240;DHT22;42154;51.992;5.896;2023-04-06T12:31:19;12.00;99.90
56240;DHT22;42154;51.992;5.896;2023-04-06T12:33:49;11.90;99.90
56240;DHT22;42154;51.992;5.896;2023-04-06T12:36:16;11.80;99.90
56240;DHT22;42154;51.992;5.896;2023-04-06T12:38:46;11.70;99.90
56240;DHT22;42154;51.992;5.896;2023-04-06T12:41:12;11.60;99.90
56240;DHT22;42154;51.992;5.896;2023-04-06T12:43:40;11.50;99.90
56240;DHT22;42154;51.992;5.896;2023-04-06T12:46:06;11.50;99.90
56240;DHT22;42154;51.992;5.896;2023-04-06T12:48:31;11.40;99.90
56240;DHT22;42154;51.992;5.896;2023-04-06T12:51:02;11.30;99.90
56240;DHT22;42154;51.992;5.896;2023-04-06T12:53:28;11.20;99.90
56240;DHT22;42154;51.992;5.896;2023-04-06T12:55:55;11.10;99.90
56240;DHT22;42154;51.992;5.896;2023-04-06T12:58:22;11.10;99.90
56240;DHT22;42154;51.992;5.896;2023-04-06T13:00:49;11.10;99.90
56240;DHT22;42154;51.992;5.896;2023-04-06T13:03:21;11.00;99.90
56240;DHT22;42154;51.992;5.896;2023-04-06T13:05:49;11.00;99.90
56240;DHT22;42154;51.992;5.896;2023-04-06T13:08:15;11.00;99.90
56240;DHT22;42154;51.992;5.896;2023-04-06T13:10:47;10.90;99.90
56240;DHT22;42154;51.992;5.896;2023-04-06T13:13:17;10.90;99.90
56240;DHT22;42154;51.992;5.896;2023-04-06T13:15:43;10.90;99.90
56240;DHT22;42154;51.992;5.896;2023-04-06T13:18:10;10.90;99.90
56240;DHT22;42154;51.992;5.896;2023-04-06T13:20:36;10.80;99.90
56240;DHT22;42154;51.992;5.896;2023-04-06T13:23:02;10.80;99.90
56240;DHT22;42154;51.992;5.896;2023-04-06T13:25:28;10.80;99.90
56240;DHT22;42154;51.992;5.896;2023-04-06T13:27:54;10.80;99.90
56240;DHT22;42154;51.992;5.896;2023-04-06T13:30:20;10.70;99.90
56240;DHT22;42154;51.992;5.896;2023-04-06T13:32:46;10.80;99.90
56240;DHT22;42154;51.992;5.896;2023-04-06T13:35:13;10.70;99.90
56240;DHT22;42154;51.992;5.896;2023-04-06T13:37:39;10.70;99.90
56240;DHT22;42154;51.992;5.896;2023-04-06T13:40:05;10.70;99.90
56240;DHT22;42154;51.992;5.896;2023-04-06T13:42:31;10.70;99.90
56240;DHT22;42154;51.992;5.896;2023-04-06T13:44:58;10.60;99.90
56240;DHT22;42154;51.992;5.896;2023-04-06T13:47:24;10.60;99.90
56240;DHT22;42154;51.992;5.896;2023-04-06T13:49:50;10.60;99.90
56240;DHT22;42154;51.992;5.896;2023-04-06T13:52:18;10.60;99.90
56240;DHT22;42154;51.992;5.896;2023-04-06T13:54:44;10.60;99.90
56240;DHT22;42154;51.992;5.896;2023-04-06T13:57:10;10.60;99.90
56240;DHT22;42154;51.992;5.896;2023-04-06T13:59:37;10.60;99.90
56240;DHT22;42154;51.992;5.896;2023-04-06T14:02:04;10.60;99.90
56240;DHT22;42154;51.992;5.896;2023-04-06T14:04:31;10.60;99.90
56240;DHT22;42154;51.992;5.896;2023-04-06T14:07:00;10.60;99.90
56240;DHT22;42154;51.992;5.896;2023-04-06T14:09:26;10.60;99.90
56240;DHT22;42154;51.992;5.896;2023-04-06T14:11:52;10.60;99.90
56240;DHT22;42154;51.992;5.896;2023-04-06T14:14:19;10.60;99.90
56240;DHT22;42154;51.992;5.896;2023-04-06T14:16:45;10.60;99.90
56240;DHT22;42154;51.992;5.896;2023-04-06T14:19:11;10.50;99.90
56240;DHT22;42154;51.992;5.896;2023-04-06T14:21:38;10.50;99.90
56240;DHT22;42154;51.992;5.896;2023-04-06T14:24:06;10.50;99.90
56240;DHT22;42154;51.992;5.896;2023-04-06T14:26:32;10.40;99.90
56240;DHT22;42154;51.992;5.896;2023-04-06T14:29:02;10.40;99.90
56240;DHT22;42154;51.992;5.896;2023-04-06T14:31:28;10.40;99.90
56240;DHT22;42154;51.992;5.896;2023-04-06T14:33:54;10.40;99.90
56240;DHT22;42154;51.992;5.896;2023-04-06T14:36:20;10.40;99.90
56240;DHT22;42154;51.992;5.896;2023-04-06T14:38:45;10.30;99.90
56240;DHT22;42154;51.992;5.896;2023-04-06T14:41:19;10.30;99.90
56240;DHT22;42154;51.992;5.896;2023-04-06T14:43:46;10.30;99.90
56240;DHT22;42154;51.992;5.896;2023-04-06T14:46:13;10.30;99.90
56240;DHT22;42154;51.992;5.896;2023-04-06T14:48:38;10.30;99.90
56240;DHT22;42154;51.992;5.896;2023-04-06T14:51:05;10.30;99.90
56240;DHT22;42154;51.992;5.896;2023-04-06T14:53:31;10.30;99.90
56240;DHT22;42154;51.992;5.896;2023-04-06T14:55:57;10.30;99.90
56240;DHT22;42154;51.992;5.896;2023-04-06T14:58:25;10.30;99.90
56240;DHT22;42154;51.992;5.896;2023-04-06T15:00:56;10.30;99.90
56240;DHT22;42154;51.992;5.896;2023-04-06T15:03:22;10.30;99.90
56240;DHT22;42154;51.992;5.896;2023-04-06T15:05:50;10.30;99.90
56240;DHT22;42154;51.992;5.896;2023-04-06T15:08:16;10.20;99.90
56240;DHT22;42154;51.992;5.896;2023-04-06T15:10:42;10.20;99.90
56240;DHT22;42154;51.992;5.896;2023-04-06T15:13:08;10.10;99.90
56240;DHT22;42154;51.992;5.896;2023-04-06T15:15:34;10.10;99.90
56240;DHT22;42154;51.992;5.896;2023-04-06T15:17:59;10.10;99.90
56240;DHT22;42154;51.992;5.896;2023-04-06T15:20:27;10.10;99.90
56240;DHT22;42154;51.992;5.896;2023-04-06T15:22:53;10.10;99.90
56240;DHT22;42154;51.992;5.896;2023-04-06T15:25:19;10.10;99.90
56240;DHT22;42154;51.992;5.896;2023-04-06T15:27:45;10.10;99.90
56240;DHT22;42154;51.992;5.896;2023-04-06T15:30:11;10.00;99.90
56240;DHT22;42154;51.992;5.896;2023-04-06T15:32:37;10.00;99.90
56240;DHT22;42154;51.992;5.896;2023-04-06T15:35:10;9.90;99.90
56240;DHT22;42154;51.992;5.896;2023-04-06T15:37:36;9.90;99.90
56240;DHT22;42154;51.992;5.896;2023-04-06T15:40:03;9.80;99.90
56240;DHT22;42154;51.992;5.896;2023-04-06T15:42:29;9.80;99.90
56240;DHT22;42154;51.992;5.896;2023-04-06T15:44:54;9.80;99.90
56240;DHT22;42154;51.992;5.896;2023-04-06T15:47:20;9.80;99.90